createdAt,value
2023-10-22T00:02:09.413Z,20.3
2023-10-22T00:08:03.067Z,20.4
2023-10-22T00:13:54.031Z,20.4
2023-10-22T00:19:46.399Z,20.4
2023-10-22T00:25:38.469Z,20.4
2023-10-22T00:31:30.571Z,20.3
2023-10-22T00:37:23.083Z,20.4
2023-10-22T00:42:59.724Z,20.4
2023-10-22T00:48:36.357Z,20.5
2023-10-22T00:54:13.898Z,20.6
2023-10-22T01:00:05.788Z,20.6
2023-10-22T01:05:43.056Z,20.6
2023-10-22T01:11:34.959Z,20.6
2023-10-22T01:17:27.346Z,20.6
2023-10-22T01:23:19.128Z,20.6
2023-10-22T01:29:10.478Z,20.6
2023-10-22T01:35:02.925Z,20.6
2023-10-22T01:40:54.451Z,20.6
2023-10-22T01:46:45.862Z,20.4
2023-10-22T01:52:37.542Z,20.4
2023-10-22T01:58:29.499Z,20.3
2023-10-22T02:04:21.754Z,20.1
2023-10-22T02:10:14.239Z,20
2023-10-22T02:15:35.293Z,19.9
2023-10-22T02:21:27.860Z,19.8
2023-10-22T02:27:19.751Z,19.6
2023-10-22T02:33:11.740Z,19.4
2023-10-22T02:39:04.129Z,19.2
2023-10-22T02:44:41.179Z,19.1
2023-10-22T02:50:33.532Z,18.9
2023-10-22T02:56:10.189Z,18.8
2023-10-22T03:02:01.704Z,18.6
2023-10-22T03:07:54.302Z,18.6
2023-10-22T03:13:45.954Z,18.4
2023-10-22T03:19:39.730Z,18.3
2023-10-22T03:25:32.084Z,18.2
2023-10-22T03:31:23.496Z,18
2023-10-22T03:37:15.687Z,17.9
2023-10-22T03:43:07.664Z,17.7
2023-10-22T03:49:00.045Z,17.6
2023-10-22T03:54:47.693Z,17.5
2023-10-22T04:00:39.724Z,17.4
2023-10-22T04:06:35.032Z,17.3
2023-10-22T04:12:11.380Z,17.1
2023-10-22T04:23:40.221Z,16.9
2023-10-22T04:29:16.967Z,16.8
2023-10-22T04:35:09.733Z,16.6
2023-10-22T04:41:00.926Z,16.5
2023-10-22T04:46:53.060Z,16.4
2023-10-22T04:52:45.808Z,16.2
2023-10-22T04:58:37.356Z,16.1
2023-10-22T05:04:30.254Z,16.1
2023-10-22T05:10:24.488Z,16.1
2023-10-22T05:16:19.088Z,16.1
2023-10-22T05:22:11.240Z,16
2023-10-22T05:28:05.953Z,16
2023-10-22T05:33:57.454Z,16
2023-10-22T05:39:49.201Z,16.1
2023-10-22T05:45:40.170Z,16.1
2023-10-22T05:51:31.330Z,16.2
2023-10-22T05:57:23.745Z,16.2
2023-10-22T06:03:15.706Z,16.3
2023-10-22T06:09:19.237Z,16.4
2023-10-22T06:15:13.531Z,16.5
2023-10-22T06:21:06.370Z,16.6
2023-10-22T06:26:58.348Z,16.7
2023-10-22T06:32:34.668Z,16.9
2023-10-22T06:38:13.544Z,17.1
2023-10-22T06:43:50.366Z,17.5
2023-10-22T06:49:12.103Z,18.4
2023-10-22T06:54:33.098Z,19.7
2023-10-22T07:00:09.404Z,21.1
2023-10-22T07:05:49.810Z,22.9
2023-10-22T07:11:26.396Z,25.4
2023-10-22T07:17:18.301Z,29.4
2023-10-22T07:23:10.519Z,35.7
2023-10-22T07:29:02.169Z,40
2023-10-22T07:34:39.451Z,34.5
2023-10-22T07:40:17.013Z,31.4
2023-10-22T07:45:53.052Z,30.8
2023-10-22T07:51:29.960Z,31.1
2023-10-22T07:57:08.332Z,31.6
2023-10-22T08:03:01.005Z,32.8
2023-10-22T08:08:41.970Z,37.3
2023-10-22T08:14:18.545Z,44
2023-10-22T08:19:55.592Z,44.6
2023-10-22T08:25:32.326Z,40.3
2023-10-22T08:31:13.324Z,35.8
2023-10-22T08:36:50.394Z,34.9
2023-10-22T08:42:11.659Z,35.6
2023-10-22T08:47:48.823Z,37.7
2023-10-22T08:53:26.176Z,38.7
2023-10-22T08:59:03.166Z,39.8
2023-10-22T09:04:56.783Z,45.3
2023-10-22T09:10:33.842Z,49.9
2023-10-22T09:16:26.297Z,51.6
2023-10-22T09:22:19.739Z,51.9
2023-10-22T09:28:13.925Z,51.4
2023-10-22T09:33:51.504Z,52.6
2023-10-22T09:39:28.276Z,53.1
2023-10-22T09:45:39.223Z,53.8
2023-10-22T09:51:42.610Z,54.3
2023-10-22T09:57:41.056Z,54.9
2023-10-22T10:03:51.830Z,55.5
2023-10-22T10:09:43.808Z,56
2023-10-22T10:15:35.743Z,56.4
2023-10-22T10:21:29.945Z,57
2023-10-22T10:27:21.657Z,56.9
2023-10-22T10:33:31.927Z,56.8
2023-10-22T10:39:23.976Z,57.4
2023-10-22T10:45:00.098Z,57.8
2023-10-22T10:50:53.365Z,57.8
2023-10-22T10:56:40.588Z,57.6
2023-10-22T11:02:49.129Z,57.5
2023-10-22T11:08:55.239Z,57.7
2023-10-22T11:14:46.938Z,57.7
2023-10-22T11:20:43.183Z,57.3
2023-10-22T11:26:21.175Z,53.5
2023-10-22T11:32:13.695Z,53.9
2023-10-22T11:38:09.232Z,54.3
2023-10-22T11:43:41.120Z,53.4
2023-10-22T11:49:33.650Z,53.5
2023-10-22T11:54:56.683Z,53.3
2023-10-22T12:01:08.445Z,52.3
2023-10-22T12:07:04.666Z,51.9
2023-10-22T12:12:56.683Z,53
2023-10-22T12:18:52.511Z,49
2023-10-22T12:25:12.153Z,47.4
2023-10-22T12:31:08.081Z,51.5
2023-10-22T12:37:00.896Z,50.5
2023-10-22T12:42:52.820Z,49.4
2023-10-22T12:48:46.249Z,47.2
2023-10-22T12:54:41.769Z,46.1
2023-10-22T13:00:18.879Z,45
2023-10-22T13:06:11.963Z,43
2023-10-22T13:12:05.576Z,41.9
2023-10-22T13:18:15.203Z,40.6
2023-10-22T13:24:07.332Z,39
2023-10-22T13:29:59.667Z,37.6
2023-10-22T13:35:52.726Z,36.4
2023-10-22T13:41:44.980Z,35.4
2023-10-22T13:47:39.543Z,34.5
2023-10-22T13:53:31.946Z,34.9
2023-10-22T13:59:24.432Z,36.2
2023-10-22T14:05:18.037Z,37.3
2023-10-22T14:11:11.034Z,37.9
2023-10-22T14:17:02.560Z,38.3
2023-10-22T14:22:54.572Z,38.4
2023-10-22T14:29:00.787Z,37.9
2023-10-22T14:35:14.817Z,37.1
2023-10-22T14:40:51.688Z,36.2
2023-10-22T14:46:43.845Z,35.1
2023-10-22T14:52:37.105Z,34.1
2023-10-22T14:58:32.698Z,33
2023-10-22T15:04:25.694Z,31.9
2023-10-22T15:10:21.413Z,30.9
2023-10-22T15:16:13.640Z,29.8
2023-10-22T15:22:07.551Z,28.9
2023-10-22T15:27:59.303Z,28
2023-10-22T15:33:53.203Z,27.2
2023-10-22T15:39:44.526Z,26.3
2023-10-22T15:45:36.776Z,25.5
2023-10-22T15:51:29.354Z,24.9
2023-10-22T15:57:21.166Z,24.4
2023-10-22T16:03:13.458Z,24
2023-10-22T16:09:06.557Z,23.6
2023-10-22T16:14:43.236Z,23.1
2023-10-22T16:20:36.255Z,22.8
2023-10-22T16:26:29.705Z,22.6
2023-10-22T16:32:22.842Z,22.3
2023-10-22T16:38:16.878Z,22.1
2023-10-22T16:44:13.070Z,21.9
2023-10-22T16:50:05.725Z,21.7
2023-10-22T16:55:42.036Z,21.5
2023-10-22T17:01:19.245Z,21.3
2023-10-22T17:06:57.227Z,21.1
2023-10-22T17:12:51.748Z,20.8
2023-10-22T17:19:20.092Z,20.6
2023-10-22T17:25:15.629Z,20.4
2023-10-22T17:31:09.358Z,20.2
2023-10-22T17:37:25.987Z,20
2023-10-22T17:43:19.547Z,19.8
2023-10-22T17:49:14.147Z,19.6
2023-10-22T17:55:24.898Z,19.3
2023-10-22T18:01:28.585Z,19.1
2023-10-22T18:07:22.859Z,18.9
2023-10-22T18:18:54.199Z,18.6
2023-10-22T18:25:03.497Z,18.6
2023-10-22T18:30:43.531Z,18.6
2023-10-22T18:36:21.117Z,18.8
2023-10-22T18:42:31.626Z,19.1
2023-10-22T18:48:27.937Z,19.1
2023-10-22T18:54:22.606Z,19.1
2023-10-22T19:00:18.384Z,19.1
2023-10-22T19:06:13.859Z,19
2023-10-22T19:12:06.807Z,18.9
2023-10-22T19:17:59.964Z,18.8
2023-10-22T19:23:53.947Z,18.5
2023-10-22T19:29:15.779Z,18.3
2023-10-22T19:34:55.319Z,18.2
2023-10-22T19:40:37.171Z,18.1
2023-10-22T19:46:30.750Z,18.1
2023-10-22T19:52:37.866Z,18.2
2023-10-22T19:58:17.353Z,18.3
2023-10-22T20:04:30.872Z,18.5
2023-10-22T20:10:35.961Z,18.5
2023-10-22T20:16:34.824Z,18.4
2023-10-22T20:22:29.633Z,18.4
2023-10-22T20:28:25.365Z,18.3
2023-10-22T20:34:17.932Z,18.3
2023-10-22T20:40:10.299Z,18.2
2023-10-22T20:46:16.515Z,18.2
2023-10-22T20:52:08.876Z,18.1
2023-10-22T20:58:02.973Z,18.1
2023-10-22T21:03:56.101Z,18.1
2023-10-22T21:09:48.359Z,18
2023-10-22T21:15:24.680Z,18
2023-10-22T21:21:18.819Z,17.9
2023-10-22T21:27:10.203Z,17.8
2023-10-22T21:33:02.469Z,17.7
2023-10-22T21:38:54.961Z,17.6
2023-10-22T21:44:46.857Z,17.4
2023-10-22T21:50:40.188Z,17.3
2023-10-22T21:56:32.190Z,17.2
2023-10-22T22:01:54.163Z,17.1
2023-10-22T22:07:31.553Z,16.9
2023-10-22T22:13:22.955Z,16.9
2023-10-22T22:19:15.780Z,16.9
2023-10-22T22:25:06.760Z,16.9
2023-10-22T22:30:53.276Z,16.9
2023-10-22T22:36:46.154Z,16.8
2023-10-22T22:42:37.910Z,16.6
2023-10-22T22:48:30.505Z,16.6
2023-10-22T22:54:22.939Z,16.4
2023-10-22T23:00:15.778Z,16.3
2023-10-22T23:06:08.282Z,16.3
2023-10-22T23:11:45.302Z,16.2
2023-10-22T23:17:37.489Z,16.1
2023-10-22T23:23:29.287Z,15.9
2023-10-22T23:29:21.523Z,15.8
2023-10-22T23:35:13.841Z,15.8
2023-10-22T23:40:53.033Z,15.6
2023-10-22T23:46:45.269Z,15.5
2023-10-22T23:52:36.756Z,15.4
2023-10-22T23:58:13.556Z,15.2
